KLOL/LOL METAR and TAF weather

Enter ICAO airport designator
Station Type Date Time Source
KLOL METAR 2020/01/17 13:53 UTC NOAA

KLOL 171353Z AUTO 23008KT 10SM CLR M02/M08 A3009 RMK AO2 SLP205 T10171078


Station Type Date Time Source
KLOL Decoded METAR 2020/01/17 13:53 UTC NOAA

LOVELOCK DERBY FIELD, NV, United States (KLOL) 40-04N 118-34W 1189M
Jan 17, 2020 - 08:53 AM EST / 2020.01.17 1353 UTC
Wind: from the SW (230 degrees) at 9 MPH (8 KT):0
Visibility: 10 mile(s):0
Sky conditions: clear
Temperature: 28.9 F (-1.7 C)
Windchill: 21 F (-6 C):1
Dew Point: 18.0 F (-7.8 C)
Relative Humidity: 63%
Pressure (altimeter): 30.09 in. Hg (1018 hPa)
ob: KLOL 171353Z AUTO 23008KT 10SM CLR M02/M08 A3009 RMK AO2 SLP205 T10171078
cycle: 14

Station Type Date Time Source
KLOL TAF 2010/01/05 05:22 UTC NOAA

TAF KLOL 050522Z 0506/0606 00000KT 1/4SM FZFG VV001
FM052000 VRB03KT 3SM BR OVC002
AMD NOT SKED

Example: see airport list